Time;durP1;ratioP1;P1;durP2;ratioP2;P2;SDS_P1;SDS_P2;PMS_P1;PMS_P2;Temp;Humidity;BMP_temperature;BMP_pressure;BME280_temperature;BME280_humidity;BME280_pressure;Samples;Min_cycle;Max_cycle;Signal;HPM_P1;HPM_P2
2023/03/01 00:01:02;;;;;;;11.13;9.93;;;;;;;-3.60;100.00;99611.94;15280409;19;20010;-46
2023/03/01 00:06:28;;;;;;;12.68;11.13;;;;;;;-3.60;100.00;99619.84;15289667;19;20392;-44
2023/03/01 00:11:53;;;;;;;13.40;11.25;;;;;;;-3.62;100.00;99619.03;15287078;19;20357;-45
2023/03/01 00:17:21;;;;;;;12.05;10.82;;;;;;;-3.62;100.00;99621.66;15286575;19;20089;-46
2023/03/01 00:22:45;;;;;;;13.48;11.20;;;;;;;-3.63;100.00;99615.50;15285562;19;20082;-45
2023/03/01 00:28:10;;;;;;;12.63;11.32;;;;;;;-3.68;100.00;99606.88;15287473;19;20020;-45
2023/03/01 00:33:37;;;;;;;13.70;12.30;;;;;;;-3.68;100.00;99611.28;15280465;19;20089;-45
2023/03/01 00:39:02;;;;;;;13.25;11.75;;;;;;;-3.74;100.00;99605.28;15286042;19;20018;-43
2023/03/01 00:44:28;;;;;;;13.25;11.93;;;;;;;-3.74;100.00;99604.41;15284714;19;20047;-44
2023/03/01 00:49:56;;;;;;;13.88;12.45;;;;;;;-3.73;100.00;99601.75;15282988;19;20014;-44
2023/03/01 00:55:21;;;;;;;13.15;11.57;;;;;;;-3.73;100.00;99595.59;15285992;19;20413;-47
2023/03/01 01:00:46;;;;;;;13.07;11.77;;;;;;;-3.73;100.00;99601.75;15279734;19;20537;-46
2023/03/01 01:06:13;;;;;;;14.85;12.43;;;;;;;-3.76;100.00;99598.31;15274093;19;20066;-45
2023/03/01 01:11:38;;;;;;;14.88;13.25;;;;;;;-3.78;100.00;99594.88;15280752;19;20448;-46
2023/03/01 01:17:02;;;;;;;14.25;12.75;;;;;;;-3.82;100.00;99588.81;15283380;19;20021;-45
2023/03/01 01:22:30;;;;;;;16.38;13.15;;;;;;;-3.87;100.00;99582.81;15281446;19;20352;-46
2023/03/01 01:27:54;;;;;;;15.05;12.50;;;;;;;-3.90;100.00;99577.63;15279234;19;20022;-45
2023/03/01 01:33:19;;;;;;;14.73;12.48;;;;;;;-3.93;100.00;99557.53;15283494;19;20025;-48
2023/03/01 01:38:50;;;;;;;16.38;13.23;;;;;;;-4.02;100.00;99556.00;15283405;19;20031;-47
2023/03/01 01:44:21;;;;;;;15.05;13.30;;;;;;;-4.04;100.00;99552.53;15300775;19;20480;-44
2023/03/01 01:49:56;;;;;;;15.32;12.73;;;;;;;-4.07;100.00;99544.75;15281476;19;20013;-44
2023/03/01 01:55:27;;;;;;;14.15;12.63;;;;;;;-4.20;100.00;99531.03;15283708;19;20026;-46
2023/03/01 02:00:52;;;;;;;15.27;13.40;;;;;;;-4.27;100.00;99528.59;15282322;19;20476;-45
2023/03/01 02:06:28;;;;;;;17.15;14.05;;;;;;;-4.35;100.00;99518.31;15247802;19;20475;-45
2023/03/01 02:11:57;;;;;;;17.25;14.35;;;;;;;-4.42;100.00;99512.34;15279097;19;20047;-46
2023/03/01 02:17:24;;;;;;;15.68;13.63;;;;;;;-4.45;100.00;99516.78;15282856;19;20742;-46
2023/03/01 02:22:52;;;;;;;17.52;14.32;;;;;;;-4.47;100.00;99516.84;15277739;19;20082;-45
2023/03/01 02:28:32;;;;;;;15.05;13.45;;;;;;;-4.56;100.00;99519.72;15280770;19;20098;-45
2023/03/01 02:33:56;;;;;;;15.93;14.23;;;;;;;-4.66;100.00;99512.06;15281469;19;20029;-47
2023/03/01 02:39:26;;;;;;;15.85;14.15;;;;;;;-4.65;100.00;99511.16;15281565;19;20018;-45
2023/03/01 02:44:53;;;;;;;16.63;14.65;;;;;;;-4.70;100.00;99512.16;15289106;19;20464;-45
2023/03/01 02:50:43;;;;;;;17.92;14.52;;;;;;;-4.77;100.00;99514.09;15291822;19;20046;-48
2023/03/01 02:56:15;;;;;;;17.35;13.93;;;;;;;-4.83;100.00;99520.38;15288917;19;20014;-48
2023/03/01 03:01:43;;;;;;;16.52;14.63;;;;;;;-4.91;100.00;99516.19;15287818;19;20039;-45
2023/03/01 03:07:08;;;;;;;17.70;14.55;;;;;;;-4.93;100.00;99517.97;15293614;19;20018;-46
2023/03/01 03:12:33;;;;;;;16.30;14.18;;;;;;;-5.00;100.00;99515.47;15291308;19;20018;-46
2023/03/01 03:18:01;;;;;;;16.10;14.25;;;;;;;-5.03;100.00;99512.06;15289138;19;20014;-48
2023/03/01 03:23:26;;;;;;;16.75;14.30;;;;;;;-5.06;100.00;99512.16;15288856;19;20614;-49
2023/03/01 03:28:50;;;;;;;17.73;14.75;;;;;;;-5.13;100.00;99514.91;15291234;19;20555;-45
2023/03/01 03:34:18;;;;;;;16.02;14.32;;;;;;;-5.20;100.00;99508.09;15292490;19;20467;-46
2023/03/01 03:39:42;;;;;;;16.35;14.40;;;;;;;-5.24;100.00;99505.56;15289289;19;20387;-46
2023/03/01 03:45:08;;;;;;;17.40;14.23;;;;;;;-5.29;100.00;99503.91;15289712;19;20093;-46
2023/03/01 03:50:42;;;;;;;17.90;14.55;;;;;;;-5.32;100.00;99495.22;15275195;19;20114;-45
2023/03/01 03:56:08;;;;;;;18.52;14.68;;;;;;;-5.34;100.00;99491.78;15288423;19;20015;-47
2023/03/01 04:01:32;;;;;;;19.38;14.80;;;;;;;-5.39;100.00;99481.38;15282055;19;20019;-45
2023/03/01 04:07:00;;;;;;;18.08;14.98;;;;;;;-5.39;100.00;99477.88;15297766;19;20025;-46
2023/03/01 04:12:24;;;;;;;16.35;14.57;;;;;;;-5.45;100.00;99481.50;15312031;19;20015;-44
2023/03/01 04:17:49;;;;;;;17.27;14.55;;;;;;;-5.48;100.00;99486.84;15283198;19;20090;-46
2023/03/01 04:23:20;;;;;;;16.88;15.05;;;;;;;-5.54;100.00;99477.34;15280816;19;20011;-44
2023/03/01 04:28:47;;;;;;;17.48;14.93;;;;;;;-5.61;100.00;99468.72;15288382;19;20086;-45
2023/03/01 04:34:13;;;;;;;16.85;14.70;;;;;;;-5.63;100.00;99478.41;15291280;19;20014;-44
2023/03/01 04:39:45;;;;;;;17.42;14.73;;;;;;;-5.64;100.00;99471.41;15287838;19;20022;-43
2023/03/01 04:45:12;;;;;;;19.30;15.63;;;;;;;-5.65;100.00;99469.69;15288079;19;20010;-44
2023/03/01 04:50:43;;;;;;;18.05;16.10;;;;;;;-5.64;100.00;99476.66;15281229;19;20036;-44
2023/03/01 04:56:13;;;;;;;17.67;15.70;;;;;;;-5.68;100.00;99477.63;15288429;19;20078;-46
2023/03/01 05:01:37;;;;;;;18.73;16.17;;;;;;;-5.74;100.00;99464.63;15284273;19;20040;-44
2023/03/01 05:07:02;;;;;;;18.48;16.48;;;;;;;-5.74;100.00;99467.25;15289125;19;20085;-44
2023/03/01 05:12:29;;;;;;;18.95;15.45;;;;;;;-5.76;100.00;99463.81;15288358;19;20006;-44
2023/03/01 05:17:55;;;;;;;18.63;16.15;;;;;;;-5.78;100.00;99463.84;15284999;19;20010;-44
2023/03/01 05:23:19;;;;;;;19.98;15.13;;;;;;;-5.82;100.00;99461.31;15280798;19;20074;-44
2023/03/01 05:28:48;;;;;;;20.48;17.27;;;;;;;-5.85;100.00;99461.38;15283392;19;20018;-44
2023/03/01 05:34:13;;;;;;;20.17;17.60;;;;;;;-5.91;100.00;99463.22;15285772;19;20013;-45
2023/03/01 05:39:39;;;;;;;19.80;16.92;;;;;;;-5.94;100.00;99458.03;15278544;19;20074;-43
2023/03/01 05:45:10;;;;;;;20.63;17.17;;;;;;;-6.00;100.00;99468.69;15281568;19;20032;-46
2023/03/01 05:50:45;;;;;;;19.45;16.13;;;;;;;-6.01;100.00;99464.34;15280753;19;20051;-45
2023/03/01 05:56:10;;;;;;;18.88;16.42;;;;;;;-6.07;100.00;99467.97;15279776;19;20010;-43
2023/03/01 06:01:37;;;;;;;18.42;16.17;;;;;;;-6.11;100.00;99465.44;15278061;19;20029;-44
2023/03/01 06:07:03;;;;;;;18.77;16.30;;;;;;;-6.11;100.00;99468.06;15283947;19;20039;-45
2023/03/01 06:12:27;;;;;;;20.65;17.30;;;;;;;-6.12;100.00;99480.31;15283853;19;20032;-48
2023/03/01 06:17:57;;;;;;;18.88;16.88;;;;;;;-6.11;100.00;99478.53;15290772;19;20018;-46
2023/03/01 06:23:22;;;;;;;20.80;16.63;;;;;;;-6.12;100.00;99476.81;15293655;19;20415;-44
2023/03/01 06:28:48;;;;;;;22.05;17.70;;;;;;;-6.10;100.00;99477.66;15292954;19;20640;-45
2023/03/01 06:34:15;;;;;;;19.17;16.70;;;;;;;-6.07;100.00;99481.06;15297604;19;20077;-47
2023/03/01 06:39:40;;;;;;;21.40;18.48;;;;;;;-5.99;100.00;99478.28;15295342;19;20484;-46
2023/03/01 06:45:04;;;;;;;20.13;17.50;;;;;;;-5.92;100.00;99477.25;15290852;19;20489;-46
2023/03/01 06:50:34;;;;;;;19.98;17.88;;;;;;;-5.83;100.00;99485.84;15292798;19;20022;-44
2023/03/01 06:56:04;;;;;;;21.77;18.77;;;;;;;-5.74;100.00;99485.63;15293368;19;20015;-44
2023/03/01 07:01:29;;;;;;;23.52;19.50;;;;;;;-5.63;100.00;99494.16;15286174;19;20011;-44
2023/03/01 07:06:57;;;;;;;22.23;18.92;;;;;;;-5.58;100.00;99487.03;15294673;19;20798;-45
2023/03/01 07:12:23;;;;;;;23.85;20.23;;;;;;;-5.55;100.00;99485.22;15294102;19;20018;-46
2023/03/01 07:17:50;;;;;;;22.13;19.48;;;;;;;-5.51;100.00;99484.28;15290187;19;20468;-46
2023/03/01 07:23:18;;;;;;;33.85;24.42;;;;;;;-5.45;100.00;99492.88;15290992;19;20021;-46
2023/03/01 07:28:43;;;;;;;23.20;20.70;;;;;;;-5.37;100.00;99490.09;15286454;19;20010;-45
2023/03/01 07:34:10;;;;;;;30.77;25.52;;;;;;;-5.28;100.00;99492.50;15287580;19;20024;-45
2023/03/01 07:39:38;;;;;;;23.00;20.60;;;;;;;-5.18;100.00;99501.03;15291856;19;20018;-46
2023/03/01 07:45:03;;;;;;;22.77;20.30;;;;;;;-5.01;100.00;99503.28;15280257;19;20377;-48
2023/03/01 07:50:28;;;;;;;22.23;19.83;;;;;;;-4.73;100.00;99502.56;15289750;19;20070;-45
2023/03/01 07:56:09;;;;;;;22.17;18.27;;;;;;;-4.36;100.00;99525.31;15290659;19;20078;-45
2023/03/01 08:01:34;;;;;;;19.15;16.92;;;;;;;-4.10;100.00;99518.50;15287543;19;20010;-45
2023/03/01 08:06:58;;;;;;;18.95;16.00;;;;;;;-3.85;100.00;99507.28;15284729;19;20017;-45
2023/03/01 08:12:27;;;;;;;17.33;14.75;;;;;;;-3.60;100.00;99499.53;15291399;19;20410;-46
2023/03/01 08:17:52;;;;;;;17.10;14.50;;;;;;;-3.41;100.00;99485.81;15286437;19;20090;-47
2023/03/01 08:23:17;;;;;;;17.30;13.95;;;;;;;-3.12;100.00;99476.13;15283089;19;20010;-46
2023/03/01 08:28:44;;;;;;;18.13;14.10;;;;;;;-2.88;100.00;99463.06;15286862;19;20035;-46
2023/03/01 08:34:13;;;;;;;13.77;12.30;;;;;;;-2.61;100.00;99458.63;15288876;19;20013;-46
2023/03/01 08:39:37;;;;;;;14.20;11.93;;;;;;;-2.42;100.00;99448.31;15277883;19;20074;-46
2023/03/01 08:45:05;;;;;;;11.93;10.35;;;;;;;-2.12;100.00;99432.28;15284623;19;20078;-49
2023/03/01 08:50:36;;;;;;;13.13;10.05;;;;;;;-1.89;100.00;99426.16;15287256;19;20082;-47
2023/03/01 08:56:02;;;;;;;11.45;10.27;;;;;;;-1.68;100.00;99414.81;15285171;19;20019;-47
2023/03/01 09:01:29;;;;;;;10.85;9.75;;;;;;;-1.51;100.00;99396.50;15284024;19;20350;-47
2023/03/01 09:06:54;;;;;;;9.98;8.90;;;;;;;-1.37;100.00;99397.75;15287759;19;20010;-47
2023/03/01 09:12:19;;;;;;;10.95;9.80;;;;;;;-1.21;100.00;99382.13;15283258;19;20018;-46
2023/03/01 09:17:47;;;;;;;10.80;9.43;;;;;;;-1.09;100.00;99378.97;15286842;19;20025;-49
2023/03/01 09:23:12;;;;;;;12.05;9.60;;;;;;;-0.96;100.00;99376.69;15284993;19;20022;-48
2023/03/01 09:28:37;;;;;;;11.07;9.70;;;;;;;-0.83;100.00;99385.81;15287221;19;20023;-46
2023/03/01 09:34:03;;;;;;;10.32;9.23;;;;;;;-0.70;100.00;99375.56;15286191;19;20090;-48
2023/03/01 09:39:28;;;;;;;11.20;8.88;;;;;;;-0.58;100.00;99366.22;15285389;19;20357;-46
2023/03/01 09:45:01;;;;;;;10.20;8.50;;;;;;;-0.48;100.00;99358.72;15276856;19;20015;-45
2023/03/01 09:50:30;;;;;;;10.18;8.68;;;;;;;-0.36;100.00;99367.94;15289471;19;20632;-46
2023/03/01 09:56:01;;;;;;;9.40;8.32;;;;;;;-0.22;100.00;99362.00;15300786;19;20018;-47
2023/03/01 10:01:40;;;;;;;10.00;8.90;;;;;;;-0.10;100.00;99374.69;15280728;19;20021;-48
2023/03/01 10:07:28;;;;;;;9.52;7.97;;;;;;;0.04;100.00;99367.91;15295981;19;20078;-48
2023/03/01 10:12:55;;;;;;;9.35;7.82;;;;;;;0.12;100.00;99379.00;15288776;19;20018;-47
2023/03/01 10:18:24;;;;;;;9.00;7.75;;;;;;;0.18;100.00;99359.28;15299687;19;20074;-46
2023/03/01 10:23:51;;;;;;;8.02;6.88;;;;;;;0.32;100.00;99361.28;15295143;19;20467;-50
2023/03/01 10:29:16;;;;;;;8.48;7.68;;;;;;;0.47;100.00;99347.31;15296900;19;20019;-47
2023/03/01 10:34:44;;;;;;;9.52;7.93;;;;;;;0.57;100.00;99345.91;15296891;19;20370;-50
2023/03/01 10:40:13;;;;;;;8.82;7.93;;;;;;;0.61;100.00;99328.94;15295242;19;20074;-48
2023/03/01 10:45:44;;;;;;;8.63;7.70;;;;;;;0.68;100.00;99324.19;15287708;19;20014;-47
2023/03/01 10:51:10;;;;;;;8.43;7.47;;;;;;;0.89;100.00;99327.53;15272166;19;20875;-47
2023/03/01 10:56:38;;;;;;;8.70;7.80;;;;;;;0.97;100.00;99326.31;15295435;19;20014;-47
2023/03/01 11:02:25;;;;;;;8.82;7.93;;;;;;;1.07;100.00;99322.25;15290741;19;20021;-49
2023/03/01 11:07:51;;;;;;;9.98;8.23;;;;;;;1.02;100.00;99327.78;15294277;19;20084;-48
2023/03/01 11:13:26;;;;;;;11.13;8.40;;;;;;;1.05;100.00;99322.31;15288820;19;20018;-47
2023/03/01 11:18:59;;;;;;;8.15;7.35;;;;;;;1.15;100.00;99317.38;15285245;19;20035;-47
2023/03/01 11:24:26;;;;;;;8.25;7.40;;;;;;;1.25;100.00;99322.22;15290257;19;20021;-47
2023/03/01 11:29:58;;;;;;;8.25;7.32;;;;;;;1.35;100.00;99315.50;15292277;19;20013;-46
2023/03/01 11:35:27;;;;;;;8.05;7.22;;;;;;;1.45;100.00;99316.72;15292018;19;20031;-47
2023/03/01 11:40:58;;;;;;;8.52;7.63;;;;;;;1.50;100.00;99304.06;15288294;19;20042;-46
2023/03/01 11:47:00;;;;;;;8.95;7.20;;;;;;;1.67;100.00;99294.31;15284027;19;20019;-46
2023/03/01 11:52:35;;;;;;;8.53;7.57;;;;;;;1.89;100.00;99293.16;15280625;19;20026;-47
2023/03/01 11:58:17;;;;;;;8.15;7.35;;;;;;;1.97;100.00;99282.94;15291463;19;20040;-46
2023/03/01 12:04:12;;;;;;;8.13;7.10;;;;;;;2.00;100.00;99280.13;15287512;19;20043;-46
2023/03/01 12:09:49;;;;;;;8.35;7.40;;;;;;;2.12;100.00;99279.44;15288286;19;20015;-47
2023/03/01 12:15:48;;;;;;;8.00;7.20;;;;;;;2.25;100.00;99268.09;15287509;19;20073;-47
2023/03/01 12:21:26;;;;;;;8.80;7.43;;;;;;;2.38;100.00;99266.47;15289823;19;20025;-49
2023/03/01 12:27:06;;;;;;;7.55;6.70;;;;;;;2.44;100.00;99251.94;15278054;19;20078;-47
2023/03/01 12:32:45;;;;;;;7.68;6.93;;;;;;;2.51;100.00;99247.97;15285678;19;20018;-46
2023/03/01 12:38:25;;;;;;;8.85;7.03;;;;;;;2.67;100.00;99247.09;15290469;19;20078;-47
2023/03/01 12:44:01;;;;;;;9.20;7.30;;;;;;;2.82;100.00;99237.31;15288578;19;20014;-48
2023/03/01 12:49:37;;;;;;;9.52;7.50;;;;;;;2.92;100.00;99227.84;15287323;19;20539;-46
2023/03/01 12:55:09;;;;;;;11.13;6.88;;;;;;;3.17;100.00;99221.88;15280563;19;20021;-47
2023/03/01 13:00:42;;;;;;;8.77;6.72;;;;;;;3.23;100.00;99218.00;15285815;19;20404;-47
2023/03/01 13:06:14;;;;;;;7.32;6.20;;;;;;;3.47;100.00;99209.41;15277830;19;20024;-46
2023/03/01 13:11:45;;;;;;;7.75;6.00;;;;;;;3.62;100.00;99205.75;15280957;19;20014;-46
2023/03/01 13:17:35;;;;;;;6.72;5.70;;;;;;;3.74;100.00;99205.94;15284333;19;20468;-46
2023/03/01 13:23:12;;;;;;;6.85;5.55;;;;;;;3.81;100.00;99209.94;15275509;19;20502;-46
2023/03/01 13:28:56;;;;;;;6.50;5.65;;;;;;;3.95;100.00;99204.53;15274232;19;20468;-47
2023/03/01 13:34:49;;;;;;;5.90;5.20;;;;;;;4.06;100.00;99195.00;15281106;19;20014;-48
2023/03/01 13:40:43;;;;;;;6.68;5.50;;;;;;;4.14;100.00;99182.03;15280962;19;20965;-46
2023/03/01 13:46:17;;;;;;;6.63;5.90;;;;;;;4.29;100.00;99182.81;15275642;19;20021;-46
2023/03/01 13:51:41;;;;;;;8.98;5.43;;;;;;;4.36;100.00;99192.09;15273901;19;20018;-47
2023/03/01 13:57:08;;;;;;;5.72;5.13;;;;;;;4.54;100.00;99184.66;15279176;19;20015;-51
2023/03/01 14:02:42;;;;;;;5.78;5.18;;;;;;;4.74;100.00;99174.47;15272147;19;20355;-47
2023/03/01 14:08:24;;;;;;;6.43;5.60;;;;;;;4.89;100.00;99177.88;15282058;19;20025;-48
2023/03/01 14:14:04;;;;;;;8.88;5.60;;;;;;;4.94;100.00;99181.06;15280521;19;20011;-46
2023/03/01 14:19:33;;;;;;;7.82;5.60;;;;;;;5.00;100.00;99171.81;15278475;19;20082;-46
2023/03/01 14:25:00;;;;;;;6.25;5.22;;;;;;;5.11;100.00;99161.22;15275734;19;20021;-46
2023/03/01 14:30:27;;;;;;;6.85;5.10;;;;;;;5.30;100.00;99149.22;15281275;19;20113;-47
2023/03/01 14:36:02;;;;;;;6.15;5.38;;;;;;;5.28;100.00;99151.13;15278256;19;20012;-48
2023/03/01 14:41:30;;;;;;;5.72;5.13;;;;;;;5.35;100.00;99144.41;15292612;19;20026;-48
2023/03/01 14:46:56;;;;;;;8.10;5.40;;;;;;;5.39;100.00;99137.88;15290884;19;20821;-48
2023/03/01 14:52:28;;;;;;;7.07;5.28;;;;;;;5.38;100.00;99136.16;15291250;19;20014;-47
2023/03/01 14:57:53;;;;;;;8.23;5.33;;;;;;;5.47;100.00;99130.13;15291426;19;20392;-46
2023/03/01 15:03:37;;;;;;;11.00;5.68;;;;;;;5.50;100.00;99140.63;15289954;19;20367;-46
2023/03/01 15:09:05;;;;;;;5.70;5.00;;;;;;;5.50;100.00;99129.91;15291149;19;20038;-46
2023/03/01 15:14:48;;;;;;;6.68;5.05;;;;;;;5.41;98.21;99125.25;15294862;19;20029;-48
2023/03/01 15:20:25;;;;;;;6.20;5.30;;;;;;;5.36;100.00;99122.03;15293977;19;20019;-47
2023/03/01 15:25:56;;;;;;;6.53;5.72;;;;;;;5.28;100.00;99119.06;15289118;19;20351;-47
2023/03/01 15:31:24;;;;;;;7.63;6.40;;;;;;;5.21;100.00;99116.00;15290833;19;20099;-47
2023/03/01 15:36:53;;;;;;;7.25;6.45;;;;;;;5.12;100.00;99113.97;15285715;19;20010;-46
2023/03/01 15:42:40;;;;;;;7.80;6.18;;;;;;;5.01;100.00;99112.06;15289883;19;20018;-46
2023/03/01 15:48:07;;;;;;;6.03;5.10;;;;;;;4.93;100.00;99110.81;15290886;19;20414;-47
2023/03/01 15:53:32;;;;;;;5.50;4.05;;;;;;;4.71;96.83;99118.59;15293384;19;20370;-46
2023/03/01 15:59:13;;;;;;;5.90;4.57;;;;;;;4.62;100.00;99123.63;15287163;19;20831;-47
2023/03/01 16:04:38;;;;;;;4.80;4.30;;;;;;;4.50;100.00;99124.47;15272628;19;20359;-49
2023/03/01 16:10:03;;;;;;;6.05;5.13;;;;;;;4.34;100.00;99134.47;15285620;19;20018;-48
2023/03/01 16:15:33;;;;;;;5.25;4.75;;;;;;;4.12;100.00;99130.59;15286599;19;20030;-48
2023/03/01 16:20:57;;;;;;;6.00;5.40;;;;;;;3.99;100.00;99136.75;15290510;19;20015;-47
2023/03/01 16:26:21;;;;;;;7.25;5.45;;;;;;;3.81;100.00;99132.63;15283639;19;20386;-49
2023/03/01 16:31:49;;;;;;;8.82;4.75;;;;;;;3.68;100.00;99127.25;15287307;19;20089;-50
2023/03/01 16:37:13;;;;;;;6.15;4.97;;;;;;;3.46;100.00;99125.13;15289059;19;20527;-48
2023/03/01 16:42:42;;;;;;;6.13;4.88;;;;;;;3.16;100.00;99126.09;15279265;19;20068;-48
2023/03/01 16:48:09;;;;;;;6.38;5.60;;;;;;;2.77;100.00;99126.69;15285300;19;20016;-51
2023/03/01 16:53:35;;;;;;;6.05;5.45;;;;;;;2.47;100.00;99126.75;15282491;19;20534;-52
2023/03/01 16:59:01;;;;;;;7.20;5.50;;;;;;;2.28;100.00;99135.84;15286908;19;20015;-49
2023/03/01 17:04:36;;;;;;;6.93;6.00;;;;;;;2.03;100.00;99130.25;15284713;19;20006;-47
2023/03/01 17:10:00;;;;;;;8.75;7.18;;;;;;;1.77;100.00;99141.44;15289000;19;20369;-48
2023/03/01 17:15:26;;;;;;;7.72;6.82;;;;;;;1.61;100.00;99154.75;15279861;19;20027;-48
2023/03/01 17:20:54;;;;;;;7.60;6.60;;;;;;;1.41;100.00;99144.38;15286544;19;20010;-45
2023/03/01 17:26:20;;;;;;;7.30;6.60;;;;;;;1.32;100.00;99140.44;15283765;19;20017;-46
2023/03/01 17:31:45;;;;;;;9.45;6.47;;;;;;;1.21;100.00;99155.16;15286498;19;20014;-45
2023/03/01 17:37:12;;;;;;;8.10;6.57;;;;;;;1.12;100.00;99150.31;15287724;19;20074;-45
2023/03/01 17:42:37;;;;;;;9.10;6.70;;;;;;;1.04;100.00;99158.72;15284171;19;20029;-45
2023/03/01 17:48:02;;;;;;;8.15;6.85;;;;;;;0.98;100.00;99159.03;15274875;19;20538;-47
2023/03/01 17:53:31;;;;;;;9.82;6.82;;;;;;;0.82;100.00;99166.97;15283388;19;20074;-44
2023/03/01 17:58:57;;;;;;;7.05;6.22;;;;;;;0.77;100.00;99166.34;15287098;19;20021;-46
2023/03/01 18:04:29;;;;;;;10.95;6.40;;;;;;;0.72;100.00;99176.34;15285906;19;20488;-49
2023/03/01 18:09:57;;;;;;;7.15;6.43;;;;;;;0.65;100.00;99175.81;15289063;19;20023;-50
2023/03/01 18:15:22;;;;;;;8.45;7.13;;;;;;;0.62;100.00;99178.63;15302624;19;20028;-45
2023/03/01 18:20:47;;;;;;;7.65;6.68;;;;;;;0.55;100.00;99175.41;15293065;19;20030;-44
2023/03/01 18:26:21;;;;;;;8.00;6.63;;;;;;;0.44;100.00;99159.22;15295485;19;20026;-44
2023/03/01 18:31:55;;;;;;;9.73;7.78;;;;;;;0.36;100.00;99148.16;15297896;19;20036;-44
2023/03/01 18:37:21;;;;;;;8.65;7.18;;;;;;;0.27;100.00;99137.09;15301732;19;20011;-44
2023/03/01 18:42:48;;;;;;;8.75;7.70;;;;;;;0.15;100.00;99143.00;15293004;19;20082;-48
2023/03/01 18:48:14;;;;;;;8.13;6.90;;;;;;;0.06;100.00;99141.69;15291504;19;20029;-46
2023/03/01 18:53:39;;;;;;;8.07;7.07;;;;;;;0.01;100.00;99146.34;15284621;19;20033;-46
2023/03/01 18:59:06;;;;;;;7.55;6.75;;;;;;;-0.01;100.00;99149.06;15295472;19;20022;-44
2023/03/01 19:04:38;;;;;;;8.40;6.53;;;;;;;-0.01;100.00;99143.78;15292415;19;20025;-46
2023/03/01 19:10:03;;;;;;;7.43;6.35;;;;;;;0.02;100.00;99149.88;15294195;19;20765;-46
2023/03/01 19:15:31;;;;;;;9.25;7.38;;;;;;;0.01;100.00;99142.84;15293325;19;20863;-47
2023/03/01 19:21:00;;;;;;;7.55;6.75;;;;;;;0.00;100.00;99147.31;15293072;19;20466;-48
2023/03/01 19:26:27;;;;;;;9.60;6.78;;;;;;;-0.02;100.00;99147.34;15286669;19;20018;-48
2023/03/01 19:31:54;;;;;;;8.18;7.18;;;;;;;-0.06;100.00;99134.34;15291126;19;20018;-47
2023/03/01 19:37:19;;;;;;;7.22;6.50;;;;;;;-0.08;100.00;99131.78;15292390;19;20470;-50
2023/03/01 19:42:43;;;;;;;7.90;6.40;;;;;;;-0.09;100.00;99145.09;15287148;19;20039;-47
2023/03/01 19:48:11;;;;;;;8.30;7.20;;;;;;;-0.15;100.00;99138.31;15286389;19;20022;-48
2023/03/01 19:53:36;;;;;;;7.97;7.03;;;;;;;-0.18;100.00;99127.88;15279943;19;20389;-48
2023/03/01 19:59:03;;;;;;;9.18;6.85;;;;;;;-0.21;100.00;99134.16;15288268;19;20030;-50
2023/03/01 20:04:37;;;;;;;7.85;7.05;;;;;;;-0.25;100.00;99142.34;15288317;19;20031;-49
2023/03/01 20:10:01;;;;;;;7.55;6.65;;;;;;;-0.29;100.00;99133.69;15288839;19;20018;-46
2023/03/01 20:15:27;;;;;;;8.07;6.55;;;;;;;-0.28;100.00;99145.13;15292342;19;20025;-47
2023/03/01 20:20:54;;;;;;;8.93;6.30;;;;;;;-0.34;100.00;99130.41;15296244;19;20026;-46
2023/03/01 20:26:22;;;;;;;9.40;6.15;;;;;;;-0.32;100.00;99124.13;15290826;19;19999;-47
2023/03/01 20:31:47;;;;;;;8.85;6.45;;;;;;;-0.26;100.00;99132.66;15285139;19;20047;-46
2023/03/01 20:37:14;;;;;;;7.53;6.00;;;;;;;-0.22;100.00;99129.78;15292142;19;20018;-47
2023/03/01 20:42:39;;;;;;;6.85;6.07;;;;;;;-0.23;100.00;99122.78;15286619;19;20066;-48
2023/03/01 20:48:03;;;;;;;7.35;6.10;;;;;;;-0.22;100.00;99124.50;15287623;19;20098;-48
2023/03/01 20:53:31;;;;;;;7.32;6.07;;;;;;;-0.24;100.00;99131.69;15288997;19;20021;-48
2023/03/01 20:58:57;;;;;;;7.68;6.57;;;;;;;-0.27;100.00;99123.88;15292598;19;20086;-45
2023/03/01 21:04:28;;;;;;;8.20;6.38;;;;;;;-0.28;100.00;99126.59;15284776;19;20015;-48
2023/03/01 21:09:55;;;;;;;7.55;6.43;;;;;;;-0.29;100.00;99124.91;15289033;19;20081;-46
2023/03/01 21:15:20;;;;;;;9.60;6.63;;;;;;;-0.32;100.00;99124.13;15304986;19;20017;-51
2023/03/01 21:20:47;;;;;;;9.30;6.00;;;;;;;-0.38;100.00;99124.41;15290874;19;20043;-47
2023/03/01 21:26:16;;;;;;;8.07;6.50;;;;;;;-0.43;100.00;99123.78;15284179;19;20074;-49
2023/03/01 21:31:40;;;;;;;7.03;5.90;;;;;;;-0.42;100.00;99114.03;15284242;19;20345;-45
2023/03/01 21:37:05;;;;;;;7.85;6.10;;;;;;;-0.45;100.00;99119.47;15286976;19;20442;-46
2023/03/01 21:42:33;;;;;;;7.10;5.90;;;;;;;-0.52;100.00;99124.19;15284062;19;20744;-46
2023/03/01 21:47:58;;;;;;;7.15;5.82;;;;;;;-0.62;100.00;99122.00;14774401;19;10000666;-48
2023/03/01 21:53:23;;;;;;;7.97;5.63;;;;;;;-0.75;100.00;99114.72;15283589;19;20384;-45
2023/03/01 21:58:50;;;;;;;7.03;5.90;;;;;;;-0.78;100.00;99106.00;15287611;19;20014;-45
2023/03/01 22:04:21;;;;;;;7.15;5.63;;;;;;;-0.79;100.00;99095.50;15280127;19;20034;-47
2023/03/01 22:09:46;;;;;;;7.03;5.28;;;;;;;-0.79;100.00;99088.41;15281713;19;20082;-46
2023/03/01 22:15:15;;;;;;;6.50;5.40;;;;;;;-0.74;100.00;99085.53;15287249;19;20018;-45
2023/03/01 22:20:40;;;;;;;6.88;5.40;;;;;;;-0.75;100.00;99083.81;15286484;19;20014;-46
2023/03/01 22:26:05;;;;;;;8.05;5.80;;;;;;;-0.77;100.00;99085.72;15284009;19;20477;-45
2023/03/01 22:31:32;;;;;;;7.50;5.80;;;;;;;-0.80;100.00;99081.41;15282709;19;20484;-47
2023/03/01 22:36:57;;;;;;;6.85;5.97;;;;;;;-0.83;100.00;99070.97;15280865;19;20017;-47
2023/03/01 22:42:23;;;;;;;8.18;6.35;;;;;;;-0.89;100.00;99075.72;15282988;19;20089;-47
2023/03/01 22:47:50;;;;;;;7.65;6.10;;;;;;;-0.97;100.00;99079.56;15282169;19;20478;-46
2023/03/01 22:53:15;;;;;;;7.93;6.22;;;;;;;-1.04;100.00;99082.56;15280575;19;20015;-47
2023/03/01 22:58:40;;;;;;;7.80;6.05;;;;;;;-1.12;100.00;99075.00;15293031;19;20087;-44
2023/03/01 23:04:14;;;;;;;9.85;6.38;;;;;;;-1.16;100.00;99076.06;15292898;19;20527;-46
2023/03/01 23:09:39;;;;;;;7.95;5.65;;;;;;;-1.23;100.00;99070.19;15287682;19;20010;-47
2023/03/01 23:15:03;;;;;;;6.32;5.18;;;;;;;-1.21;100.00;99064.81;15299210;19;20094;-48
2023/03/01 23:20:30;;;;;;;6.00;5.22;;;;;;;-1.17;100.00;99061.97;15296130;19;20090;-47
2023/03/01 23:26:03;;;;;;;6.95;5.45;;;;;;;-1.13;100.00;99057.41;15295910;19;20015;-49
2023/03/01 23:31:29;;;;;;;7.30;5.60;;;;;;;-1.11;100.00;99058.19;15293628;19;20423;-47
2023/03/01 23:36:57;;;;;;;8.85;5.65;;;;;;;-1.09;100.00;99051.03;15297945;19;20024;-47
2023/03/01 23:42:22;;;;;;;6.47;5.40;;;;;;;-1.04;100.00;99056.09;15285327;19;20029;-46
2023/03/01 23:47:46;;;;;;;6.00;5.25;;;;;;;-1.08;100.00;99052.75;15292165;19;20082;-48
2023/03/01 23:53:16;;;;;;;10.00;6.18;;;;;;;-1.05;100.00;99055.25;15291841;19;20410;-48
2023/03/01 23:58:41;;;;;;;8.45;5.88;;;;;;;-1.01;100.00;99034.81;15295323;19;20025;-49
